createdAt,value
2018-02-27T00:00:37.550Z,0.00
2018-02-27T00:01:37.542Z,0.00
2018-02-27T00:02:37.543Z,0.00
2018-02-27T00:03:37.676Z,0.00
2018-02-27T00:04:37.540Z,0.00
2018-02-27T00:05:37.571Z,0.00
2018-02-27T00:06:37.641Z,0.00
2018-02-27T00:07:37.571Z,0.00
2018-02-27T00:08:37.549Z,0.00
2018-02-27T00:09:37.570Z,0.00
2018-02-27T00:10:37.547Z,0.00
2018-02-27T00:11:37.586Z,0.00
2018-02-27T00:12:37.544Z,0.00
2018-02-27T00:13:37.549Z,0.00
2018-02-27T00:14:37.557Z,0.00
2018-02-27T00:15:37.551Z,0.00
2018-02-27T00:16:37.566Z,0.00
2018-02-27T00:17:37.564Z,0.00
2018-02-27T00:18:37.553Z,0.00
2018-02-27T00:19:37.546Z,0.00
2018-02-27T00:20:37.638Z,0.00
2018-02-27T00:21:37.562Z,0.00
2018-02-27T00:22:37.567Z,0.00
2018-02-27T00:23:37.567Z,0.00
2018-02-27T00:24:37.569Z,0.00
2018-02-27T00:25:37.580Z,0.00
2018-02-27T00:26:37.577Z,0.00
2018-02-27T00:27:37.566Z,0.00
2018-02-27T00:28:37.563Z,0.00
2018-02-27T00:29:37.575Z,0.00
2018-02-27T00:30:37.576Z,0.00
2018-02-27T00:31:37.568Z,0.00
2018-02-27T00:32:37.567Z,0.00
2018-02-27T00:33:37.577Z,0.00
2018-02-27T00:34:37.590Z,0.00
2018-02-27T00:35:37.576Z,0.00
2018-02-27T00:36:37.586Z,0.00
2018-02-27T00:37:37.585Z,0.00
2018-02-27T00:38:37.593Z,0.00
2018-02-27T00:39:37.596Z,0.00
2018-02-27T00:40:37.597Z,0.00
2018-02-27T00:41:37.586Z,0.00
2018-02-27T00:42:37.590Z,0.00
2018-02-27T00:43:37.593Z,0.00
2018-02-27T00:44:37.616Z,0.00
2018-02-27T00:45:37.581Z,0.00
2018-02-27T00:46:38.321Z,0.00
2018-02-27T00:47:37.601Z,0.00
2018-02-27T00:48:37.607Z,0.00
2018-02-27T00:49:37.598Z,0.00
2018-02-27T00:50:37.610Z,0.00
2018-02-27T00:51:37.607Z,0.00
2018-02-27T00:52:37.606Z,0.00
2018-02-27T00:53:37.604Z,0.00
2018-02-27T00:54:37.602Z,0.00
2018-02-27T00:55:37.611Z,0.00
2018-02-27T00:56:37.610Z,0.00
2018-02-27T00:57:37.613Z,0.00
2018-02-27T00:58:37.617Z,0.00
2018-02-27T00:59:37.613Z,0.00
2018-02-27T01:00:37.631Z,0.00
2018-02-27T01:01:37.621Z,0.00
2018-02-27T01:02:37.617Z,0.00
2018-02-27T01:03:37.610Z,0.00
2018-02-27T01:04:37.615Z,0.00
2018-02-27T01:05:37.614Z,0.00
2018-02-27T01:06:37.632Z,0.00
2018-02-27T01:07:37.622Z,0.00
2018-02-27T01:08:37.619Z,0.00
2018-02-27T01:09:37.626Z,0.00
2018-02-27T01:10:37.638Z,0.00
2018-02-27T01:11:37.647Z,0.00
2018-02-27T01:12:37.753Z,0.00
2018-02-27T01:13:37.631Z,0.00
2018-02-27T01:14:37.626Z,0.00
2018-02-27T01:15:37.629Z,0.00
2018-02-27T01:16:37.636Z,0.00
2018-02-27T01:17:37.642Z,0.00
2018-02-27T01:18:37.649Z,0.00
2018-02-27T01:19:37.644Z,0.00
2018-02-27T01:20:37.638Z,0.00
2018-02-27T01:21:37.647Z,0.00
2018-02-27T01:22:37.636Z,0.00
2018-02-27T01:23:37.640Z,0.00
2018-02-27T01:24:37.634Z,0.00
2018-02-27T01:25:37.644Z,0.00
2018-02-27T01:26:37.645Z,0.00
2018-02-27T01:27:38.314Z,0.00
2018-02-27T01:28:37.645Z,0.00
2018-02-27T01:29:37.649Z,0.00
2018-02-27T01:30:37.649Z,0.00
2018-02-27T01:31:37.651Z,0.00
2018-02-27T01:32:37.642Z,0.00
2018-02-27T01:33:37.659Z,0.00
2018-02-27T01:34:37.662Z,0.00
2018-02-27T01:35:37.666Z,0.00
2018-02-27T01:36:37.654Z,0.00
2018-02-27T01:37:37.663Z,0.00
2018-02-27T01:38:37.670Z,0.00
2018-02-27T01:39:37.650Z,0.00
2018-02-27T01:40:37.655Z,0.00
2018-02-27T01:41:37.685Z,0.00
2018-02-27T01:42:37.661Z,0.00
2018-02-27T01:43:37.667Z,0.00
2018-02-27T01:44:37.663Z,0.00
2018-02-27T01:45:37.757Z,0.00
2018-02-27T01:46:37.657Z,0.00
2018-02-27T01:47:37.666Z,0.00
2018-02-27T01:48:37.667Z,0.00
2018-02-27T01:49:37.672Z,0.00
2018-02-27T01:50:37.667Z,0.00
2018-02-27T01:51:37.685Z,0.00
2018-02-27T01:52:37.676Z,0.00
2018-02-27T01:53:37.676Z,0.00
2018-02-27T01:54:37.681Z,0.00
2018-02-27T01:55:37.696Z,0.00
2018-02-27T01:56:37.676Z,0.00
2018-02-27T01:57:37.672Z,0.00
2018-02-27T01:58:37.678Z,0.00
2018-02-27T01:59:37.679Z,0.00
2018-02-27T02:00:37.676Z,0.00
2018-02-27T02:01:37.684Z,0.00
2018-02-27T02:02:37.682Z,0.00
2018-02-27T02:03:37.690Z,0.00
2018-02-27T02:04:37.684Z,0.00
2018-02-27T02:05:37.716Z,0.00
2018-02-27T02:06:37.687Z,0.00
2018-02-27T02:07:37.787Z,0.00
2018-02-27T02:08:37.736Z,0.00
2018-02-27T02:09:37.713Z,0.00
2018-02-27T02:10:37.700Z,0.00
2018-02-27T02:11:37.684Z,0.00
2018-02-27T02:12:37.700Z,0.00
2018-02-27T02:13:37.695Z,0.00
2018-02-27T02:14:37.689Z,0.00
2018-02-27T02:15:37.696Z,0.00
2018-02-27T02:16:37.711Z,0.00
2018-02-27T02:17:37.718Z,0.00
2018-02-27T02:18:37.698Z,0.00
2018-02-27T02:19:37.706Z,0.00
2018-02-27T02:20:37.699Z,0.00
2018-02-27T02:21:37.706Z,0.00
2018-02-27T02:22:37.706Z,0.00
2018-02-27T02:23:37.715Z,0.00
2018-02-27T02:24:37.703Z,0.00
2018-02-27T02:25:37.708Z,0.00
2018-02-27T02:26:37.709Z,0.00
2018-02-27T02:27:37.716Z,0.00
2018-02-27T02:28:37.721Z,0.00
2018-02-27T02:29:37.713Z,0.00
2018-02-27T02:30:37.725Z,0.00
2018-02-27T02:31:37.715Z,0.00
2018-02-27T02:32:37.717Z,0.00
2018-02-27T02:33:37.715Z,0.00
2018-02-27T02:34:37.721Z,0.00
2018-02-27T02:35:37.740Z,0.00
2018-02-27T02:36:37.710Z,0.00
2018-02-27T02:37:37.716Z,0.00
2018-02-27T02:38:37.722Z,0.00
2018-02-27T02:39:37.728Z,0.00
2018-02-27T02:40:37.722Z,0.00
2018-02-27T02:41:37.724Z,0.00
2018-02-27T02:42:37.786Z,0.00
2018-02-27T02:43:37.727Z,0.00
2018-02-27T02:44:37.724Z,0.00
2018-02-27T02:45:37.722Z,0.00
2018-02-27T02:46:37.731Z,0.00
2018-02-27T02:47:37.724Z,0.00
2018-02-27T02:48:37.747Z,0.00
2018-02-27T02:49:37.727Z,0.00
2018-02-27T02:50:37.733Z,0.00
2018-02-27T02:51:37.743Z,0.00
2018-02-27T02:52:37.737Z,0.00
2018-02-27T02:53:37.728Z,0.00
2018-02-27T02:54:37.737Z,0.00
2018-02-27T02:55:37.737Z,0.00
2018-02-27T02:56:37.748Z,0.00
2018-02-27T02:57:37.733Z,0.00
2018-02-27T02:58:37.748Z,0.00
2018-02-27T02:59:37.738Z,0.00
2018-02-27T03:00:37.789Z,0.00
2018-02-27T03:01:37.738Z,0.00
2018-02-27T03:02:37.736Z,0.00
2018-02-27T03:03:37.743Z,0.00
2018-02-27T03:04:37.746Z,0.00
2018-02-27T03:05:37.745Z,0.00
2018-02-27T03:06:37.743Z,0.00
2018-02-27T03:07:37.758Z,0.00
2018-02-27T03:08:37.822Z,0.00
2018-02-27T03:09:37.748Z,0.00
2018-02-27T03:10:37.748Z,0.00
2018-02-27T03:11:37.745Z,0.00
2018-02-27T03:12:37.754Z,0.00
2018-02-27T03:13:37.753Z,0.00
2018-02-27T03:14:37.754Z,0.00
2018-02-27T03:15:37.751Z,0.00
2018-02-27T03:16:37.751Z,0.00
2018-02-27T03:17:37.793Z,0.00
2018-02-27T03:18:37.756Z,0.00
2018-02-27T03:19:37.751Z,0.00
2018-02-27T03:20:37.755Z,0.00
2018-02-27T03:21:37.759Z,0.00
2018-02-27T03:22:37.755Z,0.00
2018-02-27T03:23:37.753Z,0.00
2018-02-27T03:24:37.755Z,0.00
2018-02-27T03:25:37.755Z,0.00
2018-02-27T03:26:37.882Z,0.00
2018-02-27T03:27:37.770Z,0.00
2018-02-27T03:28:37.764Z,0.00
2018-02-27T03:29:37.762Z,0.00
2018-02-27T03:30:37.766Z,0.00
2018-02-27T03:31:37.773Z,0.00
2018-02-27T03:32:37.762Z,0.00
2018-02-27T03:33:37.763Z,0.00
2018-02-27T03:34:37.764Z,0.00
2018-02-27T03:35:37.770Z,0.00
2018-02-27T03:36:37.763Z,0.00
2018-02-27T03:37:37.763Z,0.00
2018-02-27T03:38:37.763Z,0.00
2018-02-27T03:39:37.781Z,0.00
2018-02-27T03:40:37.769Z,0.00
2018-02-27T03:41:37.771Z,0.00
2018-02-27T03:42:37.773Z,0.00
2018-02-27T03:43:37.779Z,0.00
2018-02-27T03:44:37.771Z,0.00
2018-02-27T03:45:37.778Z,0.00
2018-02-27T03:46:37.773Z,0.00
2018-02-27T03:47:37.774Z,0.00
2018-02-27T03:48:37.762Z,0.00
2018-02-27T03:49:37.765Z,0.00
2018-02-27T03:50:37.776Z,0.00
2018-02-27T03:51:37.778Z,0.00
2018-02-27T03:52:37.793Z,0.00
2018-02-27T03:53:37.792Z,0.00
2018-02-27T03:54:37.779Z,0.00
2018-02-27T03:55:37.786Z,0.00
2018-02-27T03:56:37.776Z,0.00
2018-02-27T03:57:37.786Z,0.00
2018-02-27T03:58:37.784Z,0.00
2018-02-27T03:59:37.788Z,0.00
2018-02-27T04:00:37.778Z,0.00
2018-02-27T04:01:37.788Z,0.00
2018-02-27T04:02:37.781Z,0.00
2018-02-27T04:03:37.780Z,0.00
2018-02-27T04:04:37.787Z,0.00
2018-02-27T04:05:37.780Z,0.00
2018-02-27T04:06:37.785Z,0.00
2018-02-27T04:07:37.786Z,0.00
2018-02-27T04:08:37.784Z,0.00
2018-02-27T04:09:37.786Z,0.00
2018-02-27T04:10:37.789Z,0.00
2018-02-27T04:11:37.795Z,0.00
2018-02-27T04:12:37.806Z,0.00
2018-02-27T04:13:37.789Z,0.00
2018-02-27T04:14:37.786Z,0.00
2018-02-27T04:15:37.789Z,0.00
2018-02-27T04:16:37.786Z,0.00
2018-02-27T04:17:37.865Z,0.00
2018-02-27T04:18:37.796Z,0.00
2018-02-27T04:19:37.784Z,0.00
2018-02-27T04:20:37.819Z,0.00
2018-02-27T04:21:37.796Z,0.00
2018-02-27T04:22:37.806Z,0.00
2018-02-27T04:23:37.794Z,0.00
2018-02-27T04:24:37.797Z,0.00
2018-02-27T04:25:37.790Z,0.00
2018-02-27T04:26:37.805Z,0.00
2018-02-27T04:27:37.799Z,0.00
2018-02-27T04:28:37.795Z,0.00
2018-02-27T04:29:37.791Z,0.00
2018-02-27T04:30:37.798Z,0.00
2018-02-27T04:31:37.802Z,0.00
2018-02-27T04:32:37.801Z,0.00
2018-02-27T04:33:37.795Z,0.00
2018-02-27T04:34:37.802Z,0.00
2018-02-27T04:35:37.797Z,0.00
2018-02-27T04:36:37.800Z,0.00
2018-02-27T04:37:37.807Z,0.00
2018-02-27T04:38:37.813Z,0.00
2018-02-27T04:39:37.796Z,0.00
2018-02-27T04:40:37.795Z,0.00
2018-02-27T04:41:37.800Z,0.00
2018-02-27T04:42:37.805Z,0.00
2018-02-27T04:43:37.802Z,0.00
2018-02-27T04:44:37.800Z,0.00
2018-02-27T04:45:37.800Z,0.00
2018-02-27T04:46:37.794Z,0.00
2018-02-27T04:47:37.796Z,0.00
2018-02-27T04:48:37.815Z,0.00
2018-02-27T04:49:37.811Z,0.00
2018-02-27T04:50:37.823Z,0.00
2018-02-27T04:51:37.829Z,0.00
2018-02-27T04:52:37.806Z,0.00
2018-02-27T04:53:37.820Z,0.00
2018-02-27T04:54:37.808Z,0.00
2018-02-27T04:55:37.805Z,0.00
2018-02-27T04:56:37.813Z,0.00
2018-02-27T04:57:37.806Z,0.00
2018-02-27T04:58:37.810Z,0.00
2018-02-27T04:59:37.816Z,0.00
2018-02-27T05:00:37.819Z,0.00
2018-02-27T05:01:37.810Z,0.00
2018-02-27T05:02:37.819Z,0.00
2018-02-27T05:03:37.847Z,0.00
2018-02-27T05:04:37.803Z,0.00
2018-02-27T05:05:37.824Z,0.00
2018-02-27T05:06:37.818Z,0.00
2018-02-27T05:07:37.823Z,0.00
2018-02-27T05:08:37.813Z,0.00
2018-02-27T05:09:37.822Z,0.00
2018-02-27T05:10:37.829Z,0.00
2018-02-27T05:11:37.810Z,0.00
2018-02-27T05:12:37.816Z,0.00
2018-02-27T05:13:37.843Z,0.00
2018-02-27T05:14:37.817Z,0.00
2018-02-27T05:15:37.818Z,0.00
2018-02-27T05:16:37.821Z,0.00
2018-02-27T05:17:37.817Z,0.00
2018-02-27T05:18:37.816Z,0.00
2018-02-27T05:19:37.832Z,0.00
2018-02-27T05:20:37.904Z,0.00
2018-02-27T05:21:37.830Z,0.00
2018-02-27T05:22:37.821Z,0.00
2018-02-27T05:23:37.832Z,0.00
2018-02-27T05:24:37.817Z,0.00
2018-02-27T05:25:37.847Z,0.00
2018-02-27T05:26:37.834Z,0.00
2018-02-27T05:27:37.825Z,0.00
2018-02-27T05:28:37.830Z,4.00
2018-02-27T05:29:37.810Z,0.00
2018-02-27T05:30:37.825Z,0.00
2018-02-27T05:31:37.829Z,4.00
2018-02-27T05:32:37.822Z,0.00
2018-02-27T05:33:38.788Z,0.00
2018-02-27T05:34:37.860Z,0.00
2018-02-27T05:35:37.824Z,0.00
2018-02-27T05:36:37.837Z,0.00
2018-02-27T05:37:37.822Z,0.00
2018-02-27T05:38:37.841Z,0.00
2018-02-27T05:39:37.839Z,0.00
2018-02-27T05:40:37.842Z,0.00
2018-02-27T05:41:37.829Z,0.00
2018-02-27T05:42:37.858Z,0.00
2018-02-27T05:43:37.825Z,0.00
2018-02-27T05:44:37.814Z,4.00
2018-02-27T05:45:37.821Z,0.00
2018-02-27T05:46:37.825Z,4.00
2018-02-27T05:47:37.829Z,4.00
2018-02-27T05:48:37.822Z,0.00
2018-02-27T05:49:37.824Z,4.00
2018-02-27T05:50:37.832Z,4.00
2018-02-27T05:51:37.923Z,4.00
2018-02-27T05:52:37.820Z,8.00
2018-02-27T05:53:37.827Z,8.00
2018-02-27T05:54:37.832Z,8.00
2018-02-27T05:55:37.826Z,8.00
2018-02-27T05:56:37.832Z,8.00
2018-02-27T05:57:37.831Z,12.00
2018-02-27T05:58:37.834Z,16.00
2018-02-27T05:59:37.849Z,16.00
2018-02-27T06:00:37.861Z,20.00
2018-02-27T06:01:37.830Z,24.00
2018-02-27T06:02:37.879Z,28.00
2018-02-27T06:03:37.823Z,28.00
2018-02-27T06:04:37.930Z,32.00
2018-02-27T06:05:37.828Z,40.00
2018-02-27T06:06:37.845Z,40.00
2018-02-27T06:07:37.843Z,48.00
2018-02-27T06:08:37.832Z,56.00
2018-02-27T06:09:37.834Z,60.00
2018-02-27T06:10:37.853Z,68.00
2018-02-27T06:11:37.972Z,76.00
2018-02-27T06:12:37.836Z,84.00
2018-02-27T06:13:37.851Z,96.00
2018-02-27T06:14:37.848Z,108.00
2018-02-27T06:15:37.835Z,124.00
2018-02-27T06:16:37.832Z,140.00
2018-02-27T06:17:37.911Z,160.00
2018-02-27T06:18:37.868Z,180.00
2018-02-27T06:19:37.839Z,204.00
2018-02-27T06:20:37.842Z,240.00
2018-02-27T06:21:37.852Z,264.00
2018-02-27T06:22:37.824Z,296.00
2018-02-27T06:23:37.838Z,328.00
2018-02-27T06:24:37.874Z,364.00
2018-02-27T06:25:37.834Z,400.00
2018-02-27T06:26:37.854Z,432.00
2018-02-27T06:27:37.846Z,468.00
2018-02-27T06:28:37.851Z,508.00
2018-02-27T06:29:37.834Z,540.00
2018-02-27T06:30:37.867Z,580.00
2018-02-27T06:31:37.844Z,616.00
2018-02-27T06:32:37.894Z,652.00
2018-02-27T06:33:37.851Z,692.00
2018-02-27T06:34:37.843Z,748.00
2018-02-27T06:35:37.842Z,804.00
2018-02-27T06:36:37.877Z,844.00
2018-02-27T06:37:37.850Z,860.00
2018-02-27T06:38:37.851Z,880.00
2018-02-27T06:39:37.860Z,880.00
2018-02-27T06:40:37.866Z,864.00
2018-02-27T06:41:37.845Z,856.00
2018-02-27T06:42:37.850Z,852.00
2018-02-27T06:43:37.859Z,836.00
2018-02-27T06:44:37.844Z,856.00
2018-02-27T06:45:37.850Z,920.00
2018-02-27T06:46:37.847Z,1008.00
2018-02-27T06:47:37.841Z,1084.00
2018-02-27T06:48:37.946Z,1152.00
2018-02-27T06:49:37.851Z,1168.00
2018-02-27T06:50:37.858Z,1152.00
2018-02-27T06:51:37.848Z,1180.00
2018-02-27T06:52:37.866Z,1216.00
2018-02-27T06:53:37.852Z,1212.00
2018-02-27T06:54:37.861Z,1228.00
2018-02-27T06:55:37.847Z,1340.00
2018-02-27T06:56:37.851Z,1436.00
2018-02-27T06:57:37.853Z,1516.00
2018-02-27T06:58:37.864Z,1620.00
2018-02-27T06:59:37.861Z,1704.00
2018-02-27T07:00:37.849Z,1812.00
2018-02-27T07:01:37.909Z,1972.00
2018-02-27T07:02:37.858Z,2192.00
2018-02-27T07:03:37.851Z,2360.00
2018-02-27T07:04:37.852Z,2580.00
2018-02-27T07:05:37.858Z,2740.00
2018-02-27T07:06:37.868Z,2892.00
2018-02-27T07:07:37.855Z,3124.00
2018-02-27T07:08:37.857Z,3204.00
2018-02-27T07:09:37.875Z,3292.00
2018-02-27T07:10:37.871Z,3476.00
2018-02-27T07:11:37.865Z,3404.00
2018-02-27T07:12:37.889Z,3308.00
2018-02-27T07:13:37.987Z,3304.00
2018-02-27T07:14:37.944Z,3288.00
2018-02-27T07:15:37.869Z,3028.00
2018-02-27T07:16:37.864Z,2916.00
2018-02-27T07:17:37.871Z,2900.00
2018-02-27T07:18:37.867Z,2800.00
2018-02-27T07:19:37.933Z,2812.00
2018-02-27T07:20:37.865Z,2572.00
2018-02-27T07:21:37.874Z,2432.00
2018-02-27T07:22:37.877Z,2344.00
2018-02-27T07:23:37.868Z,2276.00
2018-02-27T07:24:37.888Z,2276.00
2018-02-27T07:25:37.878Z,2468.00
2018-02-27T07:26:37.879Z,2500.00
2018-02-27T07:27:37.895Z,2488.00
2018-02-27T07:28:37.880Z,2384.00
2018-02-27T07:29:37.890Z,2400.00
2018-02-27T07:30:37.889Z,2408.00
2018-02-27T07:31:37.904Z,2468.00
2018-02-27T07:32:37.885Z,2236.00
2018-02-27T07:33:37.886Z,2264.00
2018-02-27T07:34:37.882Z,2464.00
2018-02-27T07:35:37.931Z,2604.00
2018-02-27T07:36:37.909Z,2676.00
2018-02-27T07:37:37.903Z,2796.00
2018-02-27T07:38:37.901Z,2908.00
2018-02-27T07:39:37.886Z,2860.00
2018-02-27T07:40:37.889Z,2864.00
2018-02-27T07:41:37.888Z,2916.00
2018-02-27T07:42:37.901Z,3088.00
2018-02-27T07:43:37.911Z,3312.00
2018-02-27T07:44:37.901Z,3592.00
2018-02-27T07:45:37.906Z,3916.00
2018-02-27T07:46:37.912Z,4144.00
2018-02-27T07:47:37.915Z,4536.00
2018-02-27T07:48:37.909Z,4884.00
2018-02-27T07:49:37.911Z,5540.00
2018-02-27T07:50:37.909Z,6220.00
2018-02-27T07:51:37.930Z,8080.00
2018-02-27T07:52:37.944Z,27936.00
2018-02-27T07:53:37.912Z,26624.00
2018-02-27T07:54:37.971Z,23520.00
2018-02-27T07:55:37.929Z,24128.00
2018-02-27T07:56:37.926Z,33600.00
2018-02-27T07:57:37.913Z,36736.00
2018-02-27T07:58:37.928Z,41120.00
2018-02-27T07:59:37.909Z,41152.00
2018-02-27T08:00:37.916Z,45856.00
2018-02-27T08:01:37.920Z,47488.00
2018-02-27T08:02:37.926Z,17984.00
2018-02-27T08:03:37.979Z,12364.00
2018-02-27T08:04:37.931Z,9676.00
2018-02-27T08:05:37.936Z,9508.00
2018-02-27T08:06:37.946Z,9204.00
2018-02-27T08:07:37.946Z,8460.00
2018-02-27T08:08:37.966Z,8428.00
2018-02-27T08:09:37.972Z,10720.00
2018-02-27T08:10:37.954Z,13252.00
2018-02-27T08:11:37.953Z,11088.00
2018-02-27T08:12:37.964Z,10768.00
2018-02-27T08:13:37.976Z,12256.00
2018-02-27T08:14:37.973Z,9512.00
2018-02-27T08:15:37.982Z,8964.00
2018-02-27T08:16:37.998Z,9520.00
2018-02-27T08:17:37.982Z,12364.00
2018-02-27T08:18:37.989Z,11072.00
2018-02-27T08:19:37.999Z,10692.00
2018-02-27T08:20:37.998Z,13316.00
2018-02-27T08:21:37.989Z,12996.00
2018-02-27T08:22:38.000Z,50048.00
2018-02-27T08:23:38.010Z,52000.00
2018-02-27T08:24:38.022Z,49600.00
2018-02-27T08:25:38.011Z,48672.00
2018-02-27T08:26:38.037Z,49152.00
2018-02-27T08:27:38.027Z,51840.00
2018-02-27T08:28:38.096Z,51168.00
2018-02-27T08:29:38.059Z,46272.00
2018-02-27T08:30:38.034Z,44928.00
2018-02-27T08:31:38.040Z,52608.00
2018-02-27T08:32:38.043Z,75872.00
2018-02-27T08:33:38.045Z,67040.00
2018-02-27T08:34:38.055Z,37056.00
2018-02-27T08:35:38.117Z,33216.00
2018-02-27T08:36:38.068Z,33600.00
2018-02-27T08:37:38.087Z,31392.00
2018-02-27T08:38:38.081Z,36896.00
2018-02-27T08:39:38.110Z,43424.00
2018-02-27T08:40:38.113Z,36160.00
2018-02-27T08:41:38.113Z,50656.00
2018-02-27T08:42:38.117Z,51072.00
2018-02-27T08:43:38.124Z,48032.00
2018-02-27T08:44:38.132Z,50976.00
2018-02-27T08:45:38.149Z,55680.00
2018-02-27T08:46:38.176Z,64352.00
2018-02-27T08:47:38.166Z,64768.00
2018-02-27T08:48:38.180Z,66944.00
2018-02-27T08:49:38.191Z,66368.00
2018-02-27T08:50:38.189Z,65632.00
2018-02-27T08:51:38.195Z,68000.00
2018-02-27T08:52:38.224Z,67648.00
2018-02-27T08:53:38.214Z,67840.00
2018-02-27T08:54:38.235Z,64064.00
2018-02-27T08:55:38.237Z,64800.00
2018-02-27T08:56:38.266Z,70432.00
2018-02-27T08:57:38.298Z,70400.00
2018-02-27T08:58:38.269Z,68448.00
2018-02-27T08:59:38.391Z,66784.00
2018-02-27T09:00:38.288Z,65824.00
2018-02-27T09:01:38.298Z,63776.00
2018-02-27T09:02:38.310Z,65856.00
2018-02-27T09:03:38.348Z,72224.00
2018-02-27T09:04:38.334Z,71936.00
2018-02-27T09:05:38.377Z,68544.00
2018-02-27T09:06:38.362Z,71104.00
2018-02-27T09:07:38.388Z,69792.00
2018-02-27T09:08:38.382Z,64320.00
2018-02-27T09:09:38.393Z,64800.00
2018-02-27T09:10:38.412Z,69536.00
2018-02-27T09:11:38.427Z,69088.00
2018-02-27T09:12:38.429Z,67808.00
2018-02-27T09:13:38.438Z,69024.00
2018-02-27T09:14:39.314Z,69152.00
2018-02-27T09:15:38.471Z,74016.00
2018-02-27T09:16:38.494Z,71232.00
2018-02-27T09:17:38.493Z,75040.00
2018-02-27T09:18:38.503Z,69600.00
2018-02-27T09:19:38.527Z,58912.00
2018-02-27T09:20:38.538Z,35680.00
2018-02-27T09:21:38.546Z,79808.00
2018-02-27T09:22:38.652Z,78464.00
2018-02-27T09:23:38.566Z,77280.00
2018-02-27T09:24:38.663Z,51040.00
2018-02-27T09:25:38.583Z,57632.00
2018-02-27T09:26:38.602Z,39232.00
2018-02-27T09:27:38.616Z,58368.00
2018-02-27T09:28:38.626Z,17268.00
2018-02-27T09:29:38.662Z,78016.00
2018-02-27T09:30:38.638Z,26656.00
2018-02-27T09:31:38.705Z,71040.00
2018-02-27T09:32:38.676Z,16428.00
2018-02-27T09:33:38.676Z,16288.00
2018-02-27T09:34:39.288Z,20672.00
2018-02-27T09:35:38.700Z,37824.00
2018-02-27T09:36:38.713Z,19584.00
2018-02-27T09:37:38.723Z,73504.00
2018-02-27T09:38:38.728Z,24128.00
2018-02-27T09:39:38.744Z,15040.00
2018-02-27T09:40:38.768Z,12476.00
2018-02-27T09:41:38.765Z,10148.00
2018-02-27T09:42:38.774Z,10652.00
2018-02-27T09:43:38.784Z,54688.00
2018-02-27T09:44:38.795Z,78848.00
2018-02-27T09:45:38.845Z,19200.00
2018-02-27T09:46:38.823Z,19232.00
2018-02-27T09:47:38.830Z,14400.00
2018-02-27T09:48:38.832Z,11164.00
2018-02-27T09:49:38.840Z,11696.00
2018-02-27T09:50:38.847Z,16928.00
2018-02-27T09:51:38.858Z,13360.00
2018-02-27T09:52:38.866Z,13236.00
2018-02-27T09:53:38.877Z,12952.00
2018-02-27T09:54:38.882Z,12708.00
2018-02-27T09:55:38.886Z,14144.00
2018-02-27T09:56:38.898Z,15616.00
2018-02-27T09:57:38.909Z,14080.00
2018-02-27T09:58:38.941Z,12480.00
2018-02-27T09:59:38.918Z,11552.00
2018-02-27T10:00:38.926Z,10904.00
2018-02-27T10:01:38.934Z,11452.00
2018-02-27T10:02:39.012Z,11260.00
2018-02-27T10:03:38.954Z,14232.00
2018-02-27T10:04:38.956Z,23264.00
2018-02-27T10:05:38.958Z,22432.00
2018-02-27T10:06:38.973Z,25440.00
2018-02-27T10:07:38.984Z,18752.00
2018-02-27T10:08:38.986Z,14204.00
2018-02-27T10:09:39.039Z,13316.00
2018-02-27T10:10:39.031Z,12948.00
2018-02-27T10:11:38.997Z,17792.00
2018-02-27T10:12:39.164Z,86528.00
2018-02-27T10:14:39.060Z,87040.00
2018-02-27T10:15:39.028Z,21856.00
2018-02-27T10:16:39.023Z,16648.00
2018-02-27T10:17:39.136Z,15780.00
2018-02-27T10:18:39.056Z,15992.00
2018-02-27T10:19:39.059Z,16636.00
2018-02-27T10:20:39.063Z,19104.00
2018-02-27T10:21:39.073Z,15240.00
2018-02-27T10:22:39.077Z,14848.00
2018-02-27T10:23:39.083Z,16540.00
2018-02-27T10:24:39.089Z,15916.00
2018-02-27T10:25:39.095Z,18976.00
2018-02-27T10:26:39.112Z,17632.00
2018-02-27T10:27:39.142Z,16028.00
2018-02-27T10:28:39.121Z,18208.00
2018-02-27T10:29:39.124Z,15452.00
2018-02-27T10:30:39.200Z,15612.00
2018-02-27T10:31:39.153Z,20032.00
2018-02-27T10:32:39.149Z,30816.00
2018-02-27T10:33:39.186Z,20896.00
2018-02-27T10:34:39.189Z,18944.00
2018-02-27T10:35:39.164Z,20448.00
2018-02-27T10:36:39.178Z,38816.00
2018-02-27T10:37:39.179Z,24224.00
2018-02-27T10:38:39.194Z,15876.00
2018-02-27T10:39:39.195Z,12028.00
2018-02-27T10:40:39.249Z,10836.00
2018-02-27T10:41:39.210Z,10808.00
2018-02-27T10:42:39.221Z,12768.00
2018-02-27T10:43:39.226Z,48096.00
2018-02-27T10:44:39.233Z,13016.00
2018-02-27T10:45:39.224Z,9772.00
2018-02-27T10:46:39.251Z,9364.00
2018-02-27T10:47:39.265Z,8920.00
2018-02-27T10:48:39.282Z,9428.00
2018-02-27T10:49:39.262Z,10604.00
2018-02-27T10:50:39.276Z,11064.00
2018-02-27T10:51:39.273Z,11056.00
2018-02-27T10:52:39.280Z,11688.00
2018-02-27T10:53:39.318Z,13524.00
2018-02-27T10:54:39.302Z,11860.00
2018-02-27T10:55:39.314Z,10680.00
2018-02-27T10:56:39.315Z,8580.00
2018-02-27T10:57:39.325Z,8672.00
2018-02-27T10:58:39.325Z,9760.00
2018-02-27T10:59:39.327Z,10228.00
2018-02-27T11:00:39.334Z,9320.00
2018-02-27T11:01:39.333Z,8588.00
2018-02-27T11:02:39.379Z,9628.00
2018-02-27T11:03:39.488Z,11860.00
2018-02-27T11:04:39.396Z,17856.00
2018-02-27T11:05:39.362Z,8760.00
2018-02-27T11:06:39.371Z,8040.00
2018-02-27T11:07:39.409Z,8628.00
2018-02-27T11:08:39.373Z,8796.00
2018-02-27T11:09:39.385Z,10632.00
2018-02-27T11:10:39.386Z,12368.00
2018-02-27T11:11:39.398Z,13084.00
2018-02-27T11:12:39.451Z,12004.00
2018-02-27T11:13:39.422Z,10936.00
2018-02-27T11:14:39.424Z,10944.00
2018-02-27T11:15:39.423Z,10596.00
2018-02-27T11:16:39.473Z,10056.00
2018-02-27T11:17:39.433Z,10048.00
2018-02-27T11:18:39.434Z,10044.00
2018-02-27T11:19:39.446Z,10612.00
2018-02-27T11:20:39.442Z,10072.00
2018-02-27T11:21:39.477Z,7960.00
2018-02-27T11:22:39.463Z,7520.00
2018-02-27T11:23:39.523Z,8324.00
2018-02-27T11:24:39.510Z,12352.00
2018-02-27T11:25:39.512Z,10688.00
2018-02-27T11:26:39.527Z,9952.00
2018-02-27T11:27:39.478Z,9772.00
2018-02-27T11:28:39.514Z,9692.00
2018-02-27T11:29:39.490Z,9148.00
2018-02-27T11:30:39.496Z,8740.00
2018-02-27T11:31:39.506Z,8564.00
2018-02-27T11:32:39.544Z,8792.00
2018-02-27T11:33:39.517Z,9112.00
2018-02-27T11:34:39.519Z,8944.00
2018-02-27T11:35:39.533Z,8060.00
2018-02-27T11:36:39.539Z,8372.00
2018-02-27T11:37:39.617Z,9536.00
2018-02-27T11:38:39.538Z,8172.00
2018-02-27T11:39:39.592Z,7156.00
2018-02-27T11:40:39.550Z,6860.00
2018-02-27T11:41:39.573Z,7272.00
2018-02-27T11:42:39.606Z,7364.00
2018-02-27T11:43:39.559Z,8304.00
2018-02-27T11:44:39.581Z,15216.00
2018-02-27T11:45:39.575Z,14388.00
2018-02-27T11:46:39.588Z,13544.00
2018-02-27T11:47:39.653Z,15284.00
2018-02-27T11:48:39.606Z,21504.00
2018-02-27T11:49:39.601Z,31584.00
2018-02-27T11:50:39.598Z,18016.00
2018-02-27T11:51:39.617Z,14792.00
2018-02-27T11:52:39.609Z,15072.00
2018-02-27T11:53:39.628Z,10664.00
2018-02-27T11:54:39.617Z,11316.00
2018-02-27T11:55:39.635Z,26784.00
2018-02-27T11:56:39.668Z,33408.00
2018-02-27T11:57:39.639Z,11180.00
2018-02-27T11:58:39.647Z,9936.00
2018-02-27T11:59:39.666Z,9444.00
2018-02-27T12:00:39.671Z,13432.00
2018-02-27T12:01:39.681Z,32128.00
2018-02-27T12:02:39.669Z,8256.00
2018-02-27T12:03:39.683Z,6844.00
2018-02-27T12:04:39.676Z,7168.00
2018-02-27T12:05:39.711Z,8988.00
2018-02-27T12:06:39.705Z,10140.00
2018-02-27T12:07:39.808Z,12600.00
2018-02-27T12:08:39.718Z,60064.00
2018-02-27T12:09:39.740Z,66560.00
2018-02-27T12:10:39.728Z,16488.00
2018-02-27T12:11:39.729Z,12416.00
2018-02-27T12:12:39.740Z,12676.00
2018-02-27T12:13:39.760Z,15252.00
2018-02-27T12:14:39.738Z,45952.00
2018-02-27T12:15:39.748Z,15844.00
2018-02-27T12:16:39.751Z,13892.00
2018-02-27T12:17:39.795Z,18048.00
2018-02-27T12:18:39.759Z,52000.00
2018-02-27T12:19:39.811Z,15936.00
2018-02-27T12:20:39.812Z,23904.00
2018-02-27T12:21:39.783Z,56512.00
2018-02-27T12:22:39.791Z,65760.00
2018-02-27T12:23:39.800Z,67584.00
2018-02-27T12:24:39.807Z,67936.00
2018-02-27T12:25:39.833Z,63488.00
2018-02-27T12:26:39.852Z,70912.00
2018-02-27T12:27:39.834Z,65728.00
2018-02-27T12:28:39.846Z,67904.00
2018-02-27T12:29:39.848Z,77248.00
2018-02-27T12:30:39.893Z,68224.00
2018-02-27T12:31:39.901Z,79968.00
2018-02-27T12:32:39.874Z,74400.00
2018-02-27T12:33:39.892Z,80736.00
2018-02-27T12:34:39.895Z,66752.00